createdAt,value
2019-02-05T00:02:37.121Z,47.77
2019-02-05T00:05:18.354Z,49.30
2019-02-05T00:07:59.322Z,58.53
2019-02-05T00:10:40.333Z,50.10
2019-02-05T00:13:21.077Z,62.10
2019-02-05T00:16:01.827Z,65.60
2019-02-05T00:18:42.750Z,59.90
2019-02-05T00:21:23.449Z,65.13
2019-02-05T00:24:04.198Z,66.80
2019-02-05T00:26:44.831Z,71.77
2019-02-05T00:29:25.763Z,70.77
2019-02-05T00:32:06.841Z,78.67
2019-02-05T00:34:47.473Z,80.17
2019-02-05T00:37:28.221Z,49.03
2019-02-05T00:40:09.336Z,61.97
2019-02-05T00:42:50.144Z,53.47
2019-02-05T00:45:30.732Z,54.17
2019-02-05T00:48:11.281Z,44.47
2019-02-05T00:50:52.077Z,49.63
2019-02-05T00:53:32.753Z,55.37
2019-02-05T00:56:17.677Z,47.93
2019-02-05T00:58:56.587Z,65.13
2019-02-05T01:01:37.834Z,49.97
2019-02-05T01:07:00.684Z,55.73
2019-02-05T01:09:42.289Z,47.67
2019-02-05T01:12:23.102Z,53.23
2019-02-05T01:15:03.670Z,53.57
2019-02-05T01:17:44.359Z,58.90
2019-02-05T01:20:25.175Z,48.33
2019-02-05T01:23:05.837Z,50.47
2019-02-05T01:25:46.510Z,45.60
2019-02-05T01:28:27.106Z,48.93
2019-02-05T01:31:08.127Z,43.13
2019-02-05T01:33:48.662Z,44.87
2019-02-05T01:36:29.419Z,43.77
2019-02-05T01:39:10.009Z,48.27
2019-02-05T01:41:50.641Z,49.70
2019-02-05T01:44:31.323Z,44.60
2019-02-05T01:47:12.334Z,39.80
2019-02-05T01:49:53.037Z,49.17
2019-02-05T01:52:33.414Z,45.10
2019-02-05T01:55:14.345Z,48.10
2019-02-05T01:57:54.973Z,55.47
2019-02-05T02:00:35.972Z,45.40
2019-02-05T02:03:16.383Z,40.60
2019-02-05T02:05:56.744Z,56.07
2019-02-05T02:08:37.539Z,43.67
2019-02-05T02:11:18.506Z,54.70
2019-02-05T02:13:59.355Z,39.57
2019-02-05T02:16:39.803Z,61.07
2019-02-05T02:19:20.916Z,51.00
2019-02-05T02:22:01.675Z,50.63
2019-02-05T02:27:24.702Z,46.30
2019-02-05T02:35:43.513Z,45.03
2019-02-05T02:38:23.990Z,56.07
2019-02-05T02:41:04.674Z,51.40
2019-02-05T02:43:45.906Z,53.13
2019-02-05T02:46:26.553Z,66.40
2019-02-05T02:49:07.137Z,73.67
2019-02-05T02:51:48.719Z,57.67
2019-02-05T02:54:29.122Z,61.03
2019-02-05T02:57:09.591Z,56.27
2019-02-05T02:59:50.343Z,56.93
2019-02-05T03:02:31.079Z,55.07
2019-02-05T03:05:11.775Z,55.87
2019-02-05T03:07:52.989Z,57.27
2019-02-05T03:10:33.449Z,60.43
2019-02-05T03:13:14.097Z,57.77
2019-02-05T03:15:54.818Z,67.93
2019-02-05T03:18:36.066Z,60.20
2019-02-05T03:21:16.820Z,60.53
2019-02-05T03:23:57.496Z,69.63
2019-02-05T03:26:38.211Z,72.90
2019-02-05T03:29:18.850Z,73.00
2019-02-05T03:31:59.653Z,57.03
2019-02-05T03:34:41.163Z,62.97
2019-02-05T03:37:21.784Z,61.83
2019-02-05T03:40:02.083Z,65.03
2019-02-05T03:42:42.967Z,65.03
2019-02-05T03:45:23.698Z,68.07
2019-02-05T03:48:04.426Z,59.87
2019-02-05T03:50:45.035Z,59.70
2019-02-05T03:53:25.543Z,65.40
2019-02-05T03:56:06.337Z,69.50
2019-02-05T03:58:46.830Z,65.03
2019-02-05T04:01:27.627Z,65.67
2019-02-05T04:04:08.462Z,66.20
2019-02-05T04:06:49.106Z,61.87
2019-02-05T04:09:29.958Z,55.63
2019-02-05T04:12:11.201Z,56.60
2019-02-05T04:14:51.909Z,56.47
2019-02-05T04:17:32.526Z,55.97
2019-02-05T04:20:13.196Z,61.23
2019-02-05T04:22:53.842Z,67.23
2019-02-05T04:25:34.519Z,58.40
2019-02-05T04:28:15.183Z,67.73
2019-02-05T04:30:56.291Z,57.90
2019-02-05T04:33:36.691Z,62.73
2019-02-05T04:36:17.318Z,62.87
2019-02-05T04:38:58.049Z,71.63
2019-02-05T04:41:38.710Z,68.83
2019-02-05T04:44:19.373Z,61.10
2019-02-05T04:47:00.026Z,68.93
2019-02-05T04:49:40.951Z,62.80
2019-02-05T04:52:21.511Z,64.83
2019-02-05T04:55:02.248Z,71.10
2019-02-05T04:57:42.903Z,60.80
2019-02-05T05:00:23.623Z,78.40
2019-02-05T05:03:04.302Z,79.13
2019-02-05T05:05:44.914Z,61.53
2019-02-05T05:08:25.523Z,66.67
2019-02-05T05:11:06.423Z,61.80
2019-02-05T05:13:47.365Z,72.53
2019-02-05T05:16:28.239Z,73.30
2019-02-05T05:19:08.973Z,68.63
2019-02-05T05:21:50.543Z,68.27
2019-02-05T05:24:31.187Z,72.53
2019-02-05T05:27:12.082Z,74.00
2019-02-05T05:29:52.859Z,84.20
2019-02-05T05:32:33.747Z,71.23
2019-02-05T05:37:56.616Z,79.83
2019-02-05T05:40:37.242Z,89.53
2019-02-05T05:43:17.886Z,75.20
2019-02-05T05:46:00.376Z,80.93
2019-02-05T05:48:41.136Z,81.07
2019-02-05T05:51:22.013Z,73.80
2019-02-05T05:54:02.620Z,80.60
2019-02-05T05:56:43.774Z,72.53
2019-02-05T05:59:24.445Z,65.87
2019-02-05T06:02:05.113Z,73.77
2019-02-05T06:04:45.853Z,72.80
2019-02-05T06:07:26.468Z,71.63
2019-02-05T06:10:07.400Z,76.13
2019-02-05T06:12:48.378Z,85.03
2019-02-05T06:15:29.631Z,75.77
2019-02-05T06:18:10.473Z,70.80
2019-02-05T06:20:51.291Z,72.03
2019-02-05T06:23:32.522Z,87.57
2019-02-05T06:26:13.015Z,75.87
2019-02-05T06:28:53.711Z,64.80
2019-02-05T06:31:34.583Z,86.13
2019-02-05T06:34:15.210Z,58.70
2019-02-05T06:36:56.046Z,68.17
2019-02-05T06:39:36.656Z,70.57
2019-02-05T06:42:17.304Z,67.03
2019-02-05T06:44:58.164Z,68.03
2019-02-05T06:50:24.946Z,76.23
2019-02-05T06:53:06.554Z,69.80
2019-02-05T06:55:47.139Z,73.97
2019-02-05T06:58:28.209Z,77.23
2019-02-05T07:01:09.707Z,63.37
2019-02-05T07:03:50.337Z,69.43
2019-02-05T07:09:14.191Z,64.97
2019-02-05T07:11:54.994Z,65.23
2019-02-05T07:14:35.657Z,62.40
2019-02-05T07:17:16.343Z,70.00
2019-02-05T07:19:57.455Z,71.67
2019-02-05T07:22:38.226Z,65.37
2019-02-05T07:25:18.811Z,68.53
2019-02-05T07:27:59.454Z,64.37
2019-02-05T07:30:40.102Z,75.20
2019-02-05T07:33:20.602Z,67.77
2019-02-05T07:36:01.537Z,75.17
2019-02-05T07:38:42.254Z,62.13
2019-02-05T07:41:22.817Z,63.20
2019-02-05T07:44:03.515Z,58.83
2019-02-05T07:46:44.306Z,58.10
2019-02-05T07:49:25.115Z,62.73
2019-02-05T07:52:05.894Z,65.43
2019-02-05T07:54:46.856Z,62.93
2019-02-05T07:57:28.226Z,63.50
2019-02-05T08:00:09.138Z,52.43
2019-02-05T08:02:49.959Z,72.07
2019-02-05T08:05:30.532Z,67.40
2019-02-05T08:08:11.087Z,70.00
2019-02-05T08:10:51.767Z,73.17
2019-02-05T08:13:32.420Z,66.87
2019-02-05T08:16:12.986Z,71.03
2019-02-05T08:18:53.653Z,55.57
2019-02-05T08:21:34.448Z,43.27
2019-02-05T08:24:15.255Z,46.87
2019-02-05T08:26:56.063Z,46.20
2019-02-05T08:29:37.060Z,51.57
2019-02-05T08:32:17.673Z,48.90
2019-02-05T08:34:58.126Z,47.77
2019-02-05T08:37:40.117Z,47.67
2019-02-05T08:40:21.207Z,39.87
2019-02-05T08:43:01.663Z,34.50
2019-02-05T08:45:42.365Z,40.40
2019-02-05T08:48:22.978Z,33.93
2019-02-05T08:51:03.570Z,32.77
2019-02-05T08:53:44.295Z,37.10
2019-02-05T08:56:25.120Z,45.87
2019-02-05T09:01:48.167Z,41.00
2019-02-05T09:07:13.523Z,40.97
2019-02-05T09:12:36.598Z,36.87
2019-02-05T09:15:28.844Z,45.00
2019-02-05T09:18:00.632Z,48.83
2019-02-05T09:20:41.095Z,36.33
2019-02-05T09:23:24.950Z,43.43
2019-02-05T09:28:52.670Z,43.03
2019-02-05T09:31:33.821Z,43.10
2019-02-05T09:34:14.915Z,44.50
2019-02-05T09:39:37.615Z,42.23
2019-02-05T09:42:06.984Z,43.83
2019-02-05T09:44:55.119Z,41.27
2019-02-05T09:47:43.239Z,47.33
2019-02-05T09:50:44.369Z,48.33
2019-02-05T09:53:22.873Z,39.83
2019-02-05T09:56:11.017Z,49.83
2019-02-05T09:58:59.150Z,49.43
2019-02-05T10:01:39.760Z,38.70
2019-02-05T10:04:20.398Z,46.60
2019-02-05T10:07:01.278Z,39.70
2019-02-05T10:09:42.283Z,41.90
2019-02-05T10:12:23.886Z,43.40
2019-02-05T10:14:52.795Z,36.73
2019-02-05T10:17:40.906Z,44.07
2019-02-05T10:20:29.267Z,42.67
2019-02-05T10:23:17.482Z,46.00
2019-02-05T10:26:05.876Z,39.67
2019-02-05T10:28:54.011Z,42.00
2019-02-05T10:31:42.145Z,47.00
2019-02-05T10:34:34.306Z,47.27
2019-02-05T10:37:20.734Z,43.37
2019-02-05T10:40:08.974Z,41.23
2019-02-05T10:42:57.186Z,42.37
2019-02-05T10:45:45.390Z,49.23
2019-02-05T10:48:33.431Z,39.17
2019-02-05T10:51:21.561Z,40.50
2019-02-05T10:54:10.078Z,41.47
2019-02-05T10:56:58.149Z,38.97
2019-02-05T10:59:39.341Z,39.13
2019-02-05T11:02:20.163Z,44.43
2019-02-05T11:05:00.706Z,39.17
2019-02-05T11:07:41.764Z,42.57
2019-02-05T11:10:22.463Z,42.60
2019-02-05T11:13:03.594Z,37.90
2019-02-05T11:15:44.759Z,34.67
2019-02-05T11:18:25.547Z,46.80
2019-02-05T11:21:06.411Z,42.17
2019-02-05T11:23:47.665Z,40.90
2019-02-05T11:26:28.679Z,37.37
2019-02-05T11:29:09.333Z,34.80
2019-02-05T11:31:49.923Z,38.33
2019-02-05T11:34:30.601Z,33.80
2019-02-05T11:37:10.980Z,34.10
2019-02-05T11:39:52.126Z,38.67
2019-02-05T11:42:32.801Z,33.30
2019-02-05T11:45:13.618Z,40.33
2019-02-05T11:47:54.243Z,39.30
2019-02-05T11:50:34.917Z,39.97
2019-02-05T11:53:15.670Z,38.83
2019-02-05T11:55:56.427Z,33.80
2019-02-05T11:58:37.096Z,39.03
2019-02-05T12:01:19.077Z,43.23
2019-02-05T12:03:58.251Z,40.17
2019-02-05T12:06:46.373Z,40.20
2019-02-05T12:09:34.493Z,36.83
2019-02-05T12:12:22.077Z,39.93
2019-02-05T12:15:12.193Z,41.20
2019-02-05T12:18:00.333Z,42.07
2019-02-05T12:20:48.530Z,38.10
2019-02-05T12:23:36.736Z,42.00
2019-02-05T12:26:25.081Z,33.80
2019-02-05T12:29:15.006Z,41.67
2019-02-05T12:32:03.194Z,40.30
2019-02-05T12:34:51.333Z,37.80
2019-02-05T12:37:39.474Z,43.70
2019-02-05T12:40:27.773Z,36.27
2019-02-05T12:43:15.922Z,34.57
2019-02-05T12:46:04.271Z,38.60
2019-02-05T12:48:51.904Z,38.07
2019-02-05T12:51:40.348Z,37.43
2019-02-05T12:54:28.490Z,41.93
2019-02-05T12:57:16.630Z,38.73
2019-02-05T12:59:57.758Z,45.30
2019-02-05T13:02:38.678Z,41.37
2019-02-05T13:05:19.623Z,42.07
2019-02-05T13:08:00.189Z,43.83
2019-02-05T13:10:41.263Z,42.50
2019-02-05T13:13:22.087Z,42.87
2019-02-05T13:16:02.737Z,42.13
2019-02-05T13:18:31.734Z,39.73
2019-02-05T13:21:19.872Z,48.20
2019-02-05T13:24:08.082Z,44.60
2019-02-05T13:26:56.205Z,32.77
2019-02-05T13:29:44.337Z,35.53
2019-02-05T13:32:31.910Z,41.10
2019-02-05T13:35:20.039Z,39.10
2019-02-05T13:38:08.448Z,44.53
2019-02-05T13:40:56.541Z,48.57
2019-02-05T13:46:46.702Z,51.60
2019-02-05T13:49:34.818Z,46.30
2019-02-05T13:52:22.849Z,49.07
2019-02-05T13:55:32.033Z,56.87
2019-02-05T13:58:20.154Z,47.90
2019-02-05T14:01:03.014Z,50.27
2019-02-05T14:03:43.842Z,56.80
2019-02-05T14:06:24.387Z,46.37
2019-02-05T14:09:10.596Z,47.50
2019-02-05T14:11:47.843Z,48.00
2019-02-05T14:14:28.783Z,49.10
2019-02-05T14:17:09.576Z,45.40
2019-02-05T14:19:50.047Z,44.87
2019-02-05T14:22:30.798Z,45.87
2019-02-05T14:25:12.403Z,48.43
2019-02-05T14:27:53.443Z,46.30
2019-02-05T14:30:33.963Z,47.07
2019-02-05T14:33:16.374Z,47.27
2019-02-05T14:35:57.138Z,50.70
2019-02-05T14:38:37.899Z,43.77
2019-02-05T14:41:18.735Z,44.20
2019-02-05T14:43:59.488Z,46.37
2019-02-05T14:46:40.314Z,45.27
2019-02-05T14:49:21.015Z,51.17
2019-02-05T14:52:01.916Z,45.13
2019-02-05T14:54:42.523Z,50.17
2019-02-05T14:57:23.431Z,46.00
2019-02-05T15:00:04.363Z,57.47
2019-02-05T15:02:44.969Z,46.47
2019-02-05T15:05:24.713Z,44.73
2019-02-05T15:08:13.256Z,48.63
2019-02-05T15:11:01.399Z,46.70
2019-02-05T15:13:49.519Z,50.13
2019-02-05T15:16:37.658Z,44.73
2019-02-05T15:19:25.774Z,45.53
2019-02-05T15:21:54.845Z,55.40
2019-02-05T15:24:42.888Z,56.23
2019-02-05T15:27:31.429Z,54.07
2019-02-05T15:30:42.030Z,48.80
2019-02-05T15:33:49.275Z,47.13
2019-02-05T15:36:40.670Z,45.63
2019-02-05T15:39:28.774Z,51.93
2019-02-05T15:42:17.206Z,53.00
2019-02-05T15:48:33.409Z,52.37
2019-02-05T15:51:21.551Z,55.30
2019-02-05T15:54:09.702Z,50.30
2019-02-05T15:56:57.852Z,62.27
2019-02-05T15:59:45.958Z,65.93
2019-02-05T16:02:25.105Z,64.23
2019-02-05T16:05:13.703Z,59.57
2019-02-05T16:08:01.851Z,53.30
2019-02-05T16:10:49.951Z,52.10
2019-02-05T16:13:38.107Z,58.53
2019-02-05T16:16:26.242Z,69.17
2019-02-05T16:19:14.295Z,59.73
2019-02-05T16:22:02.714Z,64.13
2019-02-05T16:24:50.799Z,56.13
2019-02-05T16:27:38.951Z,56.60
2019-02-05T16:30:27.055Z,63.33
2019-02-05T16:33:15.183Z,62.33
2019-02-05T16:36:03.397Z,64.07
2019-02-05T16:38:51.469Z,53.70
2019-02-05T16:41:39.514Z,55.73
2019-02-05T16:44:27.622Z,63.30
2019-02-05T16:47:15.901Z,58.00
2019-02-05T16:50:07.111Z,59.67
2019-02-05T16:52:36.051Z,58.67
2019-02-05T16:55:24.170Z,60.67
2019-02-05T16:58:12.369Z,60.13
2019-02-05T17:00:52.816Z,62.97
2019-02-05T17:03:36.687Z,66.23
2019-02-05T17:08:59.634Z,53.77
2019-02-05T17:11:28.701Z,51.33
2019-02-05T17:14:16.834Z,62.93
2019-02-05T17:17:04.986Z,52.90
2019-02-05T17:19:53.111Z,61.87
2019-02-05T17:22:41.282Z,52.80
2019-02-05T17:25:12.463Z,57.13
2019-02-05T17:28:00.894Z,54.10
2019-02-05T17:30:49.010Z,51.63
2019-02-05T17:33:37.170Z,60.87
2019-02-05T17:36:25.291Z,59.17
2019-02-05T17:39:13.424Z,60.87
2019-02-05T17:42:01.540Z,52.73
2019-02-05T17:44:49.595Z,65.23
2019-02-05T17:47:39.442Z,53.47
2019-02-05T17:50:27.570Z,54.37
2019-02-05T17:53:15.630Z,58.90
2019-02-05T17:56:03.848Z,53.67
2019-02-05T17:58:51.983Z,51.70
2019-02-05T18:01:32.904Z,59.63
2019-02-05T18:04:13.567Z,58.57
2019-02-05T18:06:54.210Z,60.63
2019-02-05T18:09:34.906Z,63.70
2019-02-05T18:12:15.608Z,60.80
2019-02-05T18:14:56.300Z,70.20
2019-02-05T18:17:37.222Z,72.00
2019-02-05T18:20:18.059Z,52.67
2019-02-05T18:25:48.598Z,67.10
2019-02-05T18:28:31.017Z,56.40
2019-02-05T18:31:12.064Z,62.80
2019-02-05T18:33:52.735Z,53.50
2019-02-05T18:36:33.674Z,58.27
2019-02-05T18:39:14.536Z,64.80
2019-02-05T18:41:55.682Z,60.87
2019-02-05T18:44:39.668Z,65.33
2019-02-05T18:47:20.596Z,66.57
2019-02-05T18:50:01.082Z,74.80
2019-02-05T18:52:42.287Z,66.33
2019-02-05T18:55:22.975Z,65.30
2019-02-05T18:58:09.455Z,68.97
2019-02-05T19:00:46.680Z,61.67
2019-02-05T19:03:27.523Z,67.43
2019-02-05T19:06:08.224Z,69.23
2019-02-05T19:08:49.302Z,66.03
2019-02-05T19:11:29.949Z,71.30
2019-02-05T19:14:10.695Z,58.77
2019-02-05T19:16:51.316Z,73.77
2019-02-05T19:19:34.258Z,60.53
2019-02-05T19:22:14.879Z,66.03
2019-02-05T19:27:54.820Z,76.60
2019-02-05T19:30:36.249Z,71.17
2019-02-05T19:36:03.155Z,66.77
2019-02-05T19:38:43.498Z,56.20
2019-02-05T19:41:24.254Z,60.13
2019-02-05T19:44:04.882Z,67.30
2019-02-05T19:47:04.859Z,65.23
2019-02-05T19:49:51.026Z,53.83
2019-02-05T19:52:38.177Z,66.97
2019-02-05T19:55:26.286Z,60.00
2019-02-05T19:58:16.374Z,60.03
2019-02-05T20:00:57.271Z,58.77
2019-02-05T20:03:39.123Z,64.13
2019-02-05T20:06:20.300Z,60.77
2019-02-05T20:09:00.622Z,59.40
2019-02-05T20:11:41.909Z,62.37
2019-02-05T20:17:04.911Z,63.43
2019-02-05T20:19:45.630Z,70.70
2019-02-05T20:22:29.967Z,67.50
2019-02-05T20:27:52.375Z,76.27
2019-02-05T20:30:32.726Z,71.63
2019-02-05T20:33:13.734Z,71.47
2019-02-05T20:35:54.301Z,83.30
2019-02-05T20:38:35.452Z,70.77
2019-02-05T20:44:03.767Z,69.67
2019-02-05T20:49:26.952Z,88.83
2019-02-05T20:52:07.628Z,80.93
2019-02-05T20:57:30.662Z,78.13
2019-02-05T21:02:53.977Z,85.93
2019-02-05T21:08:21.062Z,89.70
2019-02-05T21:11:02.022Z,92.07
2019-02-05T21:13:42.565Z,86.40
2019-02-05T21:16:23.295Z,93.70
2019-02-05T21:19:04.103Z,81.43
2019-02-05T21:21:45.353Z,85.13
2019-02-05T21:24:26.564Z,98.17
2019-02-05T21:27:07.644Z,88.27
2019-02-05T21:29:36.593Z,85.63
2019-02-05T21:32:24.716Z,78.57
2019-02-05T21:35:12.850Z,75.30
2019-02-05T21:38:01.238Z,83.27
2019-02-05T21:40:49.388Z,74.07
2019-02-05T21:43:37.830Z,79.07
2019-02-05T21:46:26.484Z,80.80
2019-02-05T21:49:14.688Z,79.77
2019-02-05T21:52:02.873Z,78.87
2019-02-05T21:54:51.093Z,84.97
2019-02-05T21:57:39.239Z,98.73
2019-02-05T22:00:20.530Z,83.03
2019-02-05T22:03:01.322Z,79.47
2019-02-05T22:05:42.238Z,84.73
2019-02-05T22:08:23.441Z,84.40
2019-02-05T22:11:04.579Z,84.90
2019-02-05T22:13:45.020Z,74.20
2019-02-05T22:16:25.681Z,83.83
2019-02-05T22:19:06.500Z,88.60
2019-02-05T22:21:47.590Z,84.03
2019-02-05T22:24:28.476Z,90.17
2019-02-05T22:27:09.038Z,81.83
2019-02-05T22:29:49.800Z,87.07
2019-02-05T22:35:00.790Z,88.67
2019-02-05T22:37:48.954Z,89.90
2019-02-05T22:40:37.107Z,85.20
2019-02-05T22:43:25.622Z,83.00
2019-02-05T22:46:13.730Z,76.20
2019-02-05T22:49:01.871Z,81.20
2019-02-05T22:51:50.063Z,78.77
2019-02-05T22:54:38.121Z,81.13
2019-02-05T22:57:25.793Z,82.73
2019-02-05T23:00:06.703Z,81.33
2019-02-05T23:08:24.206Z,95.00
2019-02-05T23:11:05.644Z,80.40
2019-02-05T23:16:32.327Z,88.57
2019-02-05T23:22:02.542Z,78.00
2019-02-05T23:27:29.018Z,91.67
2019-02-05T23:30:09.478Z,79.83
2019-02-05T23:32:50.754Z,90.43
2019-02-05T23:35:32.732Z,88.17
2019-02-05T23:43:48.601Z,86.97
2019-02-05T23:46:29.072Z,72.53
2019-02-05T23:49:10.253Z,80.60
2019-02-05T23:51:51.293Z,84.37
2019-02-05T23:54:31.738Z,72.97
2019-02-05T23:57:12.405Z,76.33
2019-02-05T23:59:53.798Z,78.60
